sensor_id;sensor_type;location;lat;lon;timestamp;P1;durP1;ratioP1;P2;durP2;ratioP2
75772;SDS011;64381;0.000;0.000;2023-02-15T00:00:31;5.27;;;3.23;;
75772;SDS011;64381;0.000;0.000;2023-02-15T00:02:56;5.00;;;3.00;;
75772;SDS011;64381;0.000;0.000;2023-02-15T00:05:21;4.87;;;3.03;;
75772;SDS011;64381;0.000;0.000;2023-02-15T00:07:46;5.90;;;3.63;;
75772;SDS011;64381;0.000;0.000;2023-02-15T00:10:12;5.17;;;2.97;;
75772;SDS011;64381;0.000;0.000;2023-02-15T00:12:37;6.33;;;3.20;;
75772;SDS011;64381;0.000;0.000;2023-02-15T00:15:02;5.10;;;3.30;;
75772;SDS011;64381;0.000;0.000;2023-02-15T00:17:28;4.97;;;3.15;;
75772;SDS011;64381;0.000;0.000;2023-02-15T00:19:53;4.60;;;3.03;;
75772;SDS011;64381;0.000;0.000;2023-02-15T00:22:19;4.83;;;3.00;;
75772;SDS011;64381;0.000;0.000;2023-02-15T00:24:44;5.40;;;3.38;;
75772;SDS011;64381;0.000;0.000;2023-02-15T00:27:09;4.33;;;2.97;;
75772;SDS011;64381;0.000;0.000;2023-02-15T00:29:35;4.90;;;3.00;;
75772;SDS011;64381;0.000;0.000;2023-02-15T00:32:00;4.63;;;3.10;;
75772;SDS011;64381;0.000;0.000;2023-02-15T00:34:26;4.90;;;2.90;;
75772;SDS011;64381;0.000;0.000;2023-02-15T00:36:52;4.18;;;2.78;;
75772;SDS011;64381;0.000;0.000;2023-02-15T00:39:17;4.40;;;2.90;;
75772;SDS011;64381;0.000;0.000;2023-02-15T00:41:44;4.22;;;2.83;;
75772;SDS011;64381;0.000;0.000;2023-02-15T00:44:09;4.93;;;3.20;;
75772;SDS011;64381;0.000;0.000;2023-02-15T00:46:35;5.43;;;3.15;;
75772;SDS011;64381;0.000;0.000;2023-02-15T00:49:01;4.60;;;2.80;;
75772;SDS011;64381;0.000;0.000;2023-02-15T00:51:27;4.72;;;2.80;;
75772;SDS011;64381;0.000;0.000;2023-02-15T00:53:52;4.33;;;2.77;;
75772;SDS011;64381;0.000;0.000;2023-02-15T00:56:18;4.70;;;3.00;;
75772;SDS011;64381;0.000;0.000;2023-02-15T00:58:43;5.17;;;3.13;;
75772;SDS011;64381;0.000;0.000;2023-02-15T01:01:09;4.67;;;2.93;;
75772;SDS011;64381;0.000;0.000;2023-02-15T01:03:37;4.30;;;2.53;;
75772;SDS011;64381;0.000;0.000;2023-02-15T01:06:02;4.68;;;2.88;;
75772;SDS011;64381;0.000;0.000;2023-02-15T01:08:28;4.63;;;2.90;;
75772;SDS011;64381;0.000;0.000;2023-02-15T01:10:54;5.15;;;2.90;;
75772;SDS011;64381;0.000;0.000;2023-02-15T01:13:19;4.43;;;2.77;;
75772;SDS011;64381;0.000;0.000;2023-02-15T01:15:45;4.43;;;3.00;;
75772;SDS011;64381;0.000;0.000;2023-02-15T01:18:11;5.00;;;2.83;;
75772;SDS011;64381;0.000;0.000;2023-02-15T01:20:36;4.50;;;2.70;;
75772;SDS011;64381;0.000;0.000;2023-02-15T01:23:04;4.97;;;2.95;;
75772;SDS011;64381;0.000;0.000;2023-02-15T01:25:32;4.80;;;3.00;;
75772;SDS011;64381;0.000;0.000;2023-02-15T01:27:58;4.93;;;2.73;;
75772;SDS011;64381;0.000;0.000;2023-02-15T01:30:24;4.27;;;2.60;;
75772;SDS011;64381;0.000;0.000;2023-02-15T01:32:49;4.70;;;2.73;;
75772;SDS011;64381;0.000;0.000;2023-02-15T01:35:14;4.20;;;2.47;;
75772;SDS011;64381;0.000;0.000;2023-02-15T01:37:39;4.97;;;2.90;;
75772;SDS011;64381;0.000;0.000;2023-02-15T01:40:06;4.87;;;2.80;;
75772;SDS011;64381;0.000;0.000;2023-02-15T01:42:36;4.87;;;2.67;;
75772;SDS011;64381;0.000;0.000;2023-02-15T01:45:20;4.97;;;2.97;;
75772;SDS011;64381;0.000;0.000;2023-02-15T01:47:46;5.10;;;2.70;;
75772;SDS011;64381;0.000;0.000;2023-02-15T01:50:28;4.55;;;2.85;;
75772;SDS011;64381;0.000;0.000;2023-02-15T01:55:26;4.40;;;2.50;;
75772;SDS011;64381;0.000;0.000;2023-02-15T01:57:55;4.33;;;2.63;;
75772;SDS011;64381;0.000;0.000;2023-02-15T02:00:20;4.70;;;2.70;;
75772;SDS011;64381;0.000;0.000;2023-02-15T02:02:46;4.23;;;2.50;;
75772;SDS011;64381;0.000;0.000;2023-02-15T02:05:14;4.18;;;2.60;;
75772;SDS011;64381;0.000;0.000;2023-02-15T02:07:41;4.70;;;2.73;;
75772;SDS011;64381;0.000;0.000;2023-02-15T02:10:10;4.07;;;2.60;;
75772;SDS011;64381;0.000;0.000;2023-02-15T02:12:41;4.30;;;2.87;;
75772;SDS011;64381;0.000;0.000;2023-02-15T02:15:09;4.40;;;2.45;;
75772;SDS011;64381;0.000;0.000;2023-02-15T02:31:43;4.65;;;2.58;;
75772;SDS011;64381;0.000;0.000;2023-02-15T02:37:23;4.67;;;2.43;;
75772;SDS011;64381;0.000;0.000;2023-02-15T02:42:34;5.10;;;2.60;;
75772;SDS011;64381;0.000;0.000;2023-02-15T02:45:08;4.13;;;2.40;;
75772;SDS011;64381;0.000;0.000;2023-02-15T02:47:45;4.25;;;2.50;;
75772;SDS011;64381;0.000;0.000;2023-02-15T02:50:15;3.90;;;2.53;;
75772;SDS011;64381;0.000;0.000;2023-02-15T02:52:47;4.28;;;2.65;;
75772;SDS011;64381;0.000;0.000;2023-02-15T03:01:04;4.45;;;2.67;;
75772;SDS011;64381;0.000;0.000;2023-02-15T03:06:09;4.28;;;2.35;;
75772;SDS011;64381;0.000;0.000;2023-02-15T03:08:38;3.88;;;2.30;;
75772;SDS011;64381;0.000;0.000;2023-02-15T03:11:07;4.07;;;2.38;;
75772;SDS011;64381;0.000;0.000;2023-02-15T03:13:33;3.93;;;2.40;;
75772;SDS011;64381;0.000;0.000;2023-02-15T03:15:59;4.13;;;2.42;;
75772;SDS011;64381;0.000;0.000;2023-02-15T03:18:28;4.00;;;2.47;;
75772;SDS011;64381;0.000;0.000;2023-02-15T03:21:03;4.50;;;2.58;;
75772;SDS011;64381;0.000;0.000;2023-02-15T03:23:30;4.40;;;2.50;;
75772;SDS011;64381;0.000;0.000;2023-02-15T03:25:57;4.10;;;2.70;;
75772;SDS011;64381;0.000;0.000;2023-02-15T03:28:27;4.15;;;2.42;;
75772;SDS011;64381;0.000;0.000;2023-02-15T03:30:58;4.50;;;2.60;;
75772;SDS011;64381;0.000;0.000;2023-02-15T03:33:27;4.60;;;2.42;;
75772;SDS011;64381;0.000;0.000;2023-02-15T03:35:55;4.28;;;2.40;;
75772;SDS011;64381;0.000;0.000;2023-02-15T03:38:33;4.50;;;2.57;;
75772;SDS011;64381;0.000;0.000;2023-02-15T03:41:03;4.25;;;2.30;;
75772;SDS011;64381;0.000;0.000;2023-02-15T03:43:51;4.28;;;2.55;;
75772;SDS011;64381;0.000;0.000;2023-02-15T03:49:18;3.90;;;2.30;;
75772;SDS011;64381;0.000;0.000;2023-02-15T03:51:45;3.93;;;2.33;;
75772;SDS011;64381;0.000;0.000;2023-02-15T03:54:14;4.35;;;2.40;;
75772;SDS011;64381;0.000;0.000;2023-02-15T03:56:43;3.72;;;2.28;;
75772;SDS011;64381;0.000;0.000;2023-02-15T03:59:08;4.10;;;2.20;;
75772;SDS011;64381;0.000;0.000;2023-02-15T04:01:34;4.30;;;2.30;;
75772;SDS011;64381;0.000;0.000;2023-02-15T04:04:05;3.90;;;2.40;;
75772;SDS011;64381;0.000;0.000;2023-02-15T04:06:34;4.00;;;2.38;;
75772;SDS011;64381;0.000;0.000;2023-02-15T04:09:00;4.30;;;2.40;;
75772;SDS011;64381;0.000;0.000;2023-02-15T04:11:25;4.17;;;2.40;;
75772;SDS011;64381;0.000;0.000;2023-02-15T04:13:50;4.30;;;2.40;;
75772;SDS011;64381;0.000;0.000;2023-02-15T04:16:15;4.13;;;2.33;;
75772;SDS011;64381;0.000;0.000;2023-02-15T04:18:41;3.90;;;2.03;;
75772;SDS011;64381;0.000;0.000;2023-02-15T04:21:07;4.05;;;2.30;;
75772;SDS011;64381;0.000;0.000;2023-02-15T04:23:33;4.03;;;2.30;;
75772;SDS011;64381;0.000;0.000;2023-02-15T04:25:59;4.00;;;2.30;;
75772;SDS011;64381;0.000;0.000;2023-02-15T04:28:28;4.10;;;2.37;;
75772;SDS011;64381;0.000;0.000;2023-02-15T04:30:53;3.80;;;2.10;;
75772;SDS011;64381;0.000;0.000;2023-02-15T04:33:18;3.93;;;2.27;;
75772;SDS011;64381;0.000;0.000;2023-02-15T04:35:44;4.53;;;2.33;;
75772;SDS011;64381;0.000;0.000;2023-02-15T04:38:09;4.17;;;2.27;;
75772;SDS011;64381;0.000;0.000;2023-02-15T04:40:34;4.07;;;2.37;;
75772;SDS011;64381;0.000;0.000;2023-02-15T04:42:59;4.07;;;2.20;;
75772;SDS011;64381;0.000;0.000;2023-02-15T04:45:24;4.20;;;2.40;;
75772;SDS011;64381;0.000;0.000;2023-02-15T04:47:50;4.20;;;2.17;;
75772;SDS011;64381;0.000;0.000;2023-02-15T04:50:15;4.07;;;2.23;;
75772;SDS011;64381;0.000;0.000;2023-02-15T04:52:40;4.10;;;2.30;;
75772;SDS011;64381;0.000;0.000;2023-02-15T04:55:06;3.90;;;2.33;;
75772;SDS011;64381;0.000;0.000;2023-02-15T04:57:31;3.67;;;2.17;;
75772;SDS011;64381;0.000;0.000;2023-02-15T04:59:57;4.03;;;2.20;;
75772;SDS011;64381;0.000;0.000;2023-02-15T05:02:22;3.87;;;2.57;;
75772;SDS011;64381;0.000;0.000;2023-02-15T05:04:47;4.13;;;2.40;;
75772;SDS011;64381;0.000;0.000;2023-02-15T05:07:12;3.80;;;2.27;;
75772;SDS011;64381;0.000;0.000;2023-02-15T05:09:37;3.73;;;2.10;;
75772;SDS011;64381;0.000;0.000;2023-02-15T05:12:03;4.30;;;2.20;;
75772;SDS011;64381;0.000;0.000;2023-02-15T05:14:28;3.97;;;2.50;;
75772;SDS011;64381;0.000;0.000;2023-02-15T05:16:53;4.90;;;2.40;;
75772;SDS011;64381;0.000;0.000;2023-02-15T05:19:19;4.40;;;2.30;;
75772;SDS011;64381;0.000;0.000;2023-02-15T05:21:44;4.75;;;2.30;;
75772;SDS011;64381;0.000;0.000;2023-02-15T05:24:09;3.60;;;2.10;;
75772;SDS011;64381;0.000;0.000;2023-02-15T05:26:35;4.23;;;2.40;;
75772;SDS011;64381;0.000;0.000;2023-02-15T05:29:00;4.23;;;2.23;;
75772;SDS011;64381;0.000;0.000;2023-02-15T05:31:25;4.03;;;2.30;;
75772;SDS011;64381;0.000;0.000;2023-02-15T05:33:50;4.10;;;2.40;;
75772;SDS011;64381;0.000;0.000;2023-02-15T05:36:16;4.23;;;2.37;;
75772;SDS011;64381;0.000;0.000;2023-02-15T05:38:41;3.67;;;2.27;;
75772;SDS011;64381;0.000;0.000;2023-02-15T05:41:06;3.70;;;2.07;;
75772;SDS011;64381;0.000;0.000;2023-02-15T05:43:33;4.28;;;2.33;;
75772;SDS011;64381;0.000;0.000;2023-02-15T05:45:58;3.83;;;2.27;;
75772;SDS011;64381;0.000;0.000;2023-02-15T05:48:25;3.75;;;2.35;;
75772;SDS011;64381;0.000;0.000;2023-02-15T05:51:02;4.35;;;2.60;;
75772;SDS011;64381;0.000;0.000;2023-02-15T05:53:29;3.90;;;2.30;;
75772;SDS011;64381;0.000;0.000;2023-02-15T05:55:57;4.20;;;2.33;;
75772;SDS011;64381;0.000;0.000;2023-02-15T05:58:22;3.33;;;2.10;;
75772;SDS011;64381;0.000;0.000;2023-02-15T06:00:47;4.20;;;2.33;;
75772;SDS011;64381;0.000;0.000;2023-02-15T06:03:13;4.03;;;2.30;;
75772;SDS011;64381;0.000;0.000;2023-02-15T06:05:38;4.00;;;2.60;;
75772;SDS011;64381;0.000;0.000;2023-02-15T06:08:03;4.63;;;2.10;;
75772;SDS011;64381;0.000;0.000;2023-02-15T06:10:28;3.90;;;2.20;;
75772;SDS011;64381;0.000;0.000;2023-02-15T06:12:53;3.97;;;2.37;;
75772;SDS011;64381;0.000;0.000;2023-02-15T06:15:19;8.33;;;2.13;;
75772;SDS011;64381;0.000;0.000;2023-02-15T06:17:44;4.40;;;2.30;;
75772;SDS011;64381;0.000;0.000;2023-02-15T06:20:09;6.17;;;2.10;;
75772;SDS011;64381;0.000;0.000;2023-02-15T06:22:35;4.85;;;2.20;;
75772;SDS011;64381;0.000;0.000;2023-02-15T06:25:00;4.43;;;2.40;;
75772;SDS011;64381;0.000;0.000;2023-02-15T06:27:26;4.00;;;2.27;;
75772;SDS011;64381;0.000;0.000;2023-02-15T06:29:51;3.80;;;1.90;;
75772;SDS011;64381;0.000;0.000;2023-02-15T06:32:16;3.70;;;2.20;;
75772;SDS011;64381;0.000;0.000;2023-02-15T06:34:41;3.83;;;2.13;;
75772;SDS011;64381;0.000;0.000;2023-02-15T06:37:07;4.67;;;2.17;;
75772;SDS011;64381;0.000;0.000;2023-02-15T06:39:32;4.13;;;2.30;;
75772;SDS011;64381;0.000;0.000;2023-02-15T06:41:57;3.70;;;2.07;;
75772;SDS011;64381;0.000;0.000;2023-02-15T06:44:22;3.63;;;1.90;;
75772;SDS011;64381;0.000;0.000;2023-02-15T06:46:48;4.40;;;2.10;;
75772;SDS011;64381;0.000;0.000;2023-02-15T06:49:13;4.07;;;2.33;;
75772;SDS011;64381;0.000;0.000;2023-02-15T06:51:38;3.80;;;2.23;;
75772;SDS011;64381;0.000;0.000;2023-02-15T06:54:03;5.17;;;2.40;;
75772;SDS011;64381;0.000;0.000;2023-02-15T06:56:29;4.13;;;2.27;;
75772;SDS011;64381;0.000;0.000;2023-02-15T06:58:54;4.03;;;2.22;;
75772;SDS011;64381;0.000;0.000;2023-02-15T07:01:19;3.70;;;1.90;;
75772;SDS011;64381;0.000;0.000;2023-02-15T07:03:45;3.73;;;2.03;;
75772;SDS011;64381;0.000;0.000;2023-02-15T07:06:10;4.03;;;2.30;;
75772;SDS011;64381;0.000;0.000;2023-02-15T07:08:35;3.97;;;1.97;;
75772;SDS011;64381;0.000;0.000;2023-02-15T07:11:01;4.70;;;2.13;;
75772;SDS011;64381;0.000;0.000;2023-02-15T07:13:27;5.60;;;2.47;;
75772;SDS011;64381;0.000;0.000;2023-02-15T07:15:52;3.90;;;2.10;;
75772;SDS011;64381;0.000;0.000;2023-02-15T07:18:17;3.83;;;2.10;;
75772;SDS011;64381;0.000;0.000;2023-02-15T07:20:42;4.00;;;2.23;;
75772;SDS011;64381;0.000;0.000;2023-02-15T07:23:08;4.07;;;2.17;;
75772;SDS011;64381;0.000;0.000;2023-02-15T07:25:33;4.40;;;2.10;;
75772;SDS011;64381;0.000;0.000;2023-02-15T07:27:59;4.43;;;2.10;;
75772;SDS011;64381;0.000;0.000;2023-02-15T07:30:26;4.03;;;2.30;;
75772;SDS011;64381;0.000;0.000;2023-02-15T07:32:55;4.07;;;2.15;;
75772;SDS011;64381;0.000;0.000;2023-02-15T07:35:21;4.15;;;2.30;;
75772;SDS011;64381;0.000;0.000;2023-02-15T07:37:46;4.50;;;2.37;;
75772;SDS011;64381;0.000;0.000;2023-02-15T07:40:12;4.43;;;2.53;;
75772;SDS011;64381;0.000;0.000;2023-02-15T07:42:37;4.20;;;2.53;;
75772;SDS011;64381;0.000;0.000;2023-02-15T07:45:02;4.27;;;2.40;;
75772;SDS011;64381;0.000;0.000;2023-02-15T07:47:27;4.20;;;2.30;;
75772;SDS011;64381;0.000;0.000;2023-02-15T07:49:53;4.17;;;2.60;;
75772;SDS011;64381;0.000;0.000;2023-02-15T07:52:18;4.20;;;2.03;;
75772;SDS011;64381;0.000;0.000;2023-02-15T07:54:43;4.17;;;2.43;;
75772;SDS011;64381;0.000;0.000;2023-02-15T07:57:08;4.60;;;2.43;;
75772;SDS011;64381;0.000;0.000;2023-02-15T07:59:34;4.53;;;2.30;;
75772;SDS011;64381;0.000;0.000;2023-02-15T08:01:59;4.27;;;2.30;;
75772;SDS011;64381;0.000;0.000;2023-02-15T08:04:24;4.40;;;2.20;;
75772;SDS011;64381;0.000;0.000;2023-02-15T08:06:51;4.40;;;2.07;;
75772;SDS011;64381;0.000;0.000;2023-02-15T08:09:17;3.90;;;2.10;;
75772;SDS011;64381;0.000;0.000;2023-02-15T08:11:43;3.60;;;2.10;;
75772;SDS011;64381;0.000;0.000;2023-02-15T08:19:08;3.97;;;2.47;;
75772;SDS011;64381;0.000;0.000;2023-02-15T08:21:49;4.15;;;2.40;;
75772;SDS011;64381;0.000;0.000;2023-02-15T08:24:17;3.77;;;2.20;;
75772;SDS011;64381;0.000;0.000;2023-02-15T08:26:44;4.32;;;2.40;;
75772;SDS011;64381;0.000;0.000;2023-02-15T08:29:10;3.78;;;2.30;;
75772;SDS011;64381;0.000;0.000;2023-02-15T08:31:36;4.67;;;2.40;;
75772;SDS011;64381;0.000;0.000;2023-02-15T08:34:01;4.10;;;2.10;;
75772;SDS011;64381;0.000;0.000;2023-02-15T08:36:27;4.60;;;2.50;;
75772;SDS011;64381;0.000;0.000;2023-02-15T08:38:54;4.28;;;2.53;;
75772;SDS011;64381;0.000;0.000;2023-02-15T08:41:21;4.32;;;2.58;;
75772;SDS011;64381;0.000;0.000;2023-02-15T08:43:49;3.90;;;2.30;;
75772;SDS011;64381;0.000;0.000;2023-02-15T08:46:19;3.63;;;2.37;;
75772;SDS011;64381;0.000;0.000;2023-02-15T08:48:45;4.00;;;2.30;;
75772;SDS011;64381;0.000;0.000;2023-02-15T08:51:12;4.38;;;2.40;;
75772;SDS011;64381;0.000;0.000;2023-02-15T08:53:40;4.72;;;2.83;;
75772;SDS011;64381;0.000;0.000;2023-02-15T08:56:07;4.07;;;2.43;;
75772;SDS011;64381;0.000;0.000;2023-02-15T08:58:33;12.75;;;2.95;;
75772;SDS011;64381;0.000;0.000;2023-02-15T09:00:59;7.25;;;2.85;;
75772;SDS011;64381;0.000;0.000;2023-02-15T09:03:24;6.53;;;3.00;;
75772;SDS011;64381;0.000;0.000;2023-02-15T09:05:50;7.83;;;3.20;;
75772;SDS011;64381;0.000;0.000;2023-02-15T09:08:15;5.87;;;2.70;;
75772;SDS011;64381;0.000;0.000;2023-02-15T09:10:40;6.93;;;2.70;;
75772;SDS011;64381;0.000;0.000;2023-02-15T09:13:05;7.82;;;2.80;;
75772;SDS011;64381;0.000;0.000;2023-02-15T09:15:31;6.43;;;2.93;;
75772;SDS011;64381;0.000;0.000;2023-02-15T09:17:56;5.20;;;2.87;;
75772;SDS011;64381;0.000;0.000;2023-02-15T09:20:21;6.10;;;2.93;;
75772;SDS011;64381;0.000;0.000;2023-02-15T09:22:46;7.03;;;2.70;;
75772;SDS011;64381;0.000;0.000;2023-02-15T09:25:12;5.43;;;3.03;;
75772;SDS011;64381;0.000;0.000;2023-02-15T09:27:37;5.17;;;2.60;;
75772;SDS011;64381;0.000;0.000;2023-02-15T09:30:03;4.70;;;2.80;;
75772;SDS011;64381;0.000;0.000;2023-02-15T09:32:28;5.47;;;2.78;;
75772;SDS011;64381;0.000;0.000;2023-02-15T09:34:54;5.47;;;2.90;;
75772;SDS011;64381;0.000;0.000;2023-02-15T09:37:19;6.20;;;3.03;;
75772;SDS011;64381;0.000;0.000;2023-02-15T09:39:44;6.23;;;2.80;;
75772;SDS011;64381;0.000;0.000;2023-02-15T09:45:08;5.00;;;2.50;;
75772;SDS011;64381;0.000;0.000;2023-02-15T09:47:58;5.53;;;2.90;;
75772;SDS011;64381;0.000;0.000;2023-02-15T09:56:15;6.53;;;2.97;;
75772;SDS011;64381;0.000;0.000;2023-02-15T10:15:27;5.90;;;3.15;;
75772;SDS011;64381;0.000;0.000;2023-02-15T10:23:38;4.95;;;2.70;;
75772;SDS011;64381;0.000;0.000;2023-02-15T10:26:12;5.53;;;3.13;;
75772;SDS011;64381;0.000;0.000;2023-02-15T10:28:49;4.93;;;2.80;;
75772;SDS011;64381;0.000;0.000;2023-02-15T10:34:14;5.32;;;2.90;;
75772;SDS011;64381;0.000;0.000;2023-02-15T10:42:17;5.43;;;2.65;;
75772;SDS011;64381;0.000;0.000;2023-02-15T10:48:03;5.97;;;2.72;;
75772;SDS011;64381;0.000;0.000;2023-02-15T10:56:24;4.68;;;2.80;;
75772;SDS011;64381;0.000;0.000;2023-02-15T11:01:48;10.10;;;5.15;;
75772;SDS011;64381;0.000;0.000;2023-02-15T11:10:00;9.80;;;4.95;;
75772;SDS011;64381;0.000;0.000;2023-02-15T11:12:38;12.43;;;5.40;;
75772;SDS011;64381;0.000;0.000;2023-02-15T11:15:19;11.50;;;5.25;;
75772;SDS011;64381;0.000;0.000;2023-02-15T11:17:55;11.05;;;5.65;;
75772;SDS011;64381;0.000;0.000;2023-02-15T11:23:06;10.15;;;5.07;;
75772;SDS011;64381;0.000;0.000;2023-02-15T11:25:38;12.20;;;5.43;;
75772;SDS011;64381;0.000;0.000;2023-02-15T11:28:04;12.23;;;5.90;;
75772;SDS011;64381;0.000;0.000;2023-02-15T11:30:46;11.10;;;5.50;;
75772;SDS011;64381;0.000;0.000;2023-02-15T11:33:20;11.73;;;5.60;;
75772;SDS011;64381;0.000;0.000;2023-02-15T11:35:54;12.32;;;5.88;;
75772;SDS011;64381;0.000;0.000;2023-02-15T11:38:47;11.80;;;5.70;;
75772;SDS011;64381;0.000;0.000;2023-02-15T11:41:19;12.03;;;5.83;;
75772;SDS011;64381;0.000;0.000;2023-02-15T11:43:50;13.50;;;6.40;;
75772;SDS011;64381;0.000;0.000;2023-02-15T11:46:21;14.80;;;6.85;;
75772;SDS011;64381;0.000;0.000;2023-02-15T11:48:46;19.70;;;9.30;;
75772;SDS011;64381;0.000;0.000;2023-02-15T11:51:13;18.30;;;8.43;;
75772;SDS011;64381;0.000;0.000;2023-02-15T11:53:41;17.67;;;8.47;;
75772;SDS011;64381;0.000;0.000;2023-02-15T11:56:12;20.65;;;9.07;;
75772;SDS011;64381;0.000;0.000;2023-02-15T11:58:41;18.20;;;8.70;;
75772;SDS011;64381;0.000;0.000;2023-02-15T12:01:20;16.42;;;8.35;;
75772;SDS011;64381;0.000;0.000;2023-02-15T12:03:54;17.75;;;8.75;;
75772;SDS011;64381;0.000;0.000;2023-02-15T12:06:28;20.50;;;8.77;;
75772;SDS011;64381;0.000;0.000;2023-02-15T12:09:07;18.08;;;7.90;;
75772;SDS011;64381;0.000;0.000;2023-02-15T12:15:06;14.70;;;7.47;;
75772;SDS011;64381;0.000;0.000;2023-02-15T12:22:39;16.20;;;7.67;;
75772;SDS011;64381;0.000;0.000;2023-02-15T12:25:21;15.95;;;7.75;;
75772;SDS011;64381;0.000;0.000;2023-02-15T12:27:51;17.35;;;7.50;;
75772;SDS011;64381;0.000;0.000;2023-02-15T12:30:19;16.80;;;7.50;;
75772;SDS011;64381;0.000;0.000;2023-02-15T12:32:50;16.30;;;7.55;;
75772;SDS011;64381;0.000;0.000;2023-02-15T12:35:28;15.10;;;7.63;;
75772;SDS011;64381;0.000;0.000;2023-02-15T12:40:36;14.00;;;7.47;;
75772;SDS011;64381;0.000;0.000;2023-02-15T12:43:03;15.10;;;7.07;;
75772;SDS011;64381;0.000;0.000;2023-02-15T12:45:32;16.30;;;6.80;;
75772;SDS011;64381;0.000;0.000;2023-02-15T12:48:17;15.45;;;7.07;;
75772;SDS011;64381;0.000;0.000;2023-02-15T12:50:48;14.40;;;6.95;;
75772;SDS011;64381;0.000;0.000;2023-02-15T12:53:16;14.00;;;7.10;;
75772;SDS011;64381;0.000;0.000;2023-02-15T12:56:02;12.68;;;6.97;;
75772;SDS011;64381;0.000;0.000;2023-02-15T13:03:51;12.68;;;6.63;;
75772;SDS011;64381;0.000;0.000;2023-02-15T13:06:20;12.87;;;6.67;;
75772;SDS011;64381;0.000;0.000;2023-02-15T13:08:47;11.40;;;5.90;;
75772;SDS011;64381;0.000;0.000;2023-02-15T13:11:19;13.13;;;6.53;;
75772;SDS011;64381;0.000;0.000;2023-02-15T13:13:50;13.10;;;6.70;;
75772;SDS011;64381;0.000;0.000;2023-02-15T13:16:20;13.73;;;6.50;;
75772;SDS011;64381;0.000;0.000;2023-02-15T13:18:56;12.52;;;6.25;;
75772;SDS011;64381;0.000;0.000;2023-02-15T13:21:25;11.23;;;6.15;;
75772;SDS011;64381;0.000;0.000;2023-02-15T13:23:57;11.50;;;6.07;;
75772;SDS011;64381;0.000;0.000;2023-02-15T13:26:26;11.70;;;5.43;;
75772;SDS011;64381;0.000;0.000;2023-02-15T13:28:56;12.27;;;5.95;;
75772;SDS011;64381;0.000;0.000;2023-02-15T13:31:26;10.52;;;6.03;;
75772;SDS011;64381;0.000;0.000;2023-02-15T13:33:55;10.65;;;5.72;;
75772;SDS011;64381;0.000;0.000;2023-02-15T13:36:29;11.65;;;5.70;;
75772;SDS011;64381;0.000;0.000;2023-02-15T13:52:47;11.43;;;5.53;;
75772;SDS011;64381;0.000;0.000;2023-02-15T14:01:07;11.52;;;5.43;;
75772;SDS011;64381;0.000;0.000;2023-02-15T14:08:50;10.73;;;5.40;;
75772;SDS011;64381;0.000;0.000;2023-02-15T14:11:43;11.73;;;5.60;;
75772;SDS011;64381;0.000;0.000;2023-02-15T14:14:31;9.32;;;4.80;;
75772;SDS011;64381;0.000;0.000;2023-02-15T14:17:04;9.65;;;4.50;;
75772;SDS011;64381;0.000;0.000;2023-02-15T14:19:44;10.43;;;5.07;;
75772;SDS011;64381;0.000;0.000;2023-02-15T14:22:33;9.48;;;5.10;;
75772;SDS011;64381;0.000;0.000;2023-02-15T14:25:15;9.77;;;5.45;;
75772;SDS011;64381;0.000;0.000;2023-02-15T14:30:15;9.38;;;5.00;;
75772;SDS011;64381;0.000;0.000;2023-02-15T14:32:54;9.07;;;4.47;;
75772;SDS011;64381;0.000;0.000;2023-02-15T14:35:26;8.77;;;4.82;;
75772;SDS011;64381;0.000;0.000;2023-02-15T14:38:09;9.35;;;5.10;;
75772;SDS011;64381;0.000;0.000;2023-02-15T14:40:42;9.10;;;4.80;;
75772;SDS011;64381;0.000;0.000;2023-02-15T14:43:23;9.43;;;4.70;;
75772;SDS011;64381;0.000;0.000;2023-02-15T14:48:25;10.27;;;4.35;;
75772;SDS011;64381;0.000;0.000;2023-02-15T14:50:58;8.45;;;4.40;;
75772;SDS011;64381;0.000;0.000;2023-02-15T14:58:34;8.75;;;4.85;;
75772;SDS011;64381;0.000;0.000;2023-02-15T15:01:05;9.13;;;4.70;;
75772;SDS011;64381;0.000;0.000;2023-02-15T15:03:32;8.50;;;4.20;;
75772;SDS011;64381;0.000;0.000;2023-02-15T15:05:58;7.47;;;4.40;;
75772;SDS011;64381;0.000;0.000;2023-02-15T15:08:32;7.53;;;4.50;;
75772;SDS011;64381;0.000;0.000;2023-02-15T15:13:57;8.82;;;4.20;;
75772;SDS011;64381;0.000;0.000;2023-02-15T15:18:59;8.55;;;4.07;;
75772;SDS011;64381;0.000;0.000;2023-02-15T15:24:49;6.82;;;3.88;;
75772;SDS011;64381;0.000;0.000;2023-02-15T15:41:19;8.13;;;4.07;;
75772;SDS011;64381;0.000;0.000;2023-02-15T15:49:57;7.82;;;4.10;;
75772;SDS011;64381;0.000;0.000;2023-02-15T15:52:23;7.40;;;3.92;;
75772;SDS011;64381;0.000;0.000;2023-02-15T15:54:51;6.47;;;3.73;;
75772;SDS011;64381;0.000;0.000;2023-02-15T15:59:56;7.32;;;3.80;;
75772;SDS011;64381;0.000;0.000;2023-02-15T16:02:22;7.40;;;4.03;;
75772;SDS011;64381;0.000;0.000;2023-02-15T16:04:47;6.67;;;3.67;;
75772;SDS011;64381;0.000;0.000;2023-02-15T16:09:40;6.70;;;3.60;;
75772;SDS011;64381;0.000;0.000;2023-02-15T16:12:12;6.77;;;3.30;;
75772;SDS011;64381;0.000;0.000;2023-02-15T16:14:40;7.23;;;3.40;;
75772;SDS011;64381;0.000;0.000;2023-02-15T16:17:08;7.68;;;3.75;;
75772;SDS011;64381;0.000;0.000;2023-02-15T16:19:42;7.30;;;3.65;;
75772;SDS011;64381;0.000;0.000;2023-02-15T16:22:12;6.75;;;3.72;;
75772;SDS011;64381;0.000;0.000;2023-02-15T16:24:58;7.80;;;3.50;;
75772;SDS011;64381;0.000;0.000;2023-02-15T16:27:31;7.40;;;3.28;;
75772;SDS011;64381;0.000;0.000;2023-02-15T16:33:09;8.13;;;3.50;;
75772;SDS011;64381;0.000;0.000;2023-02-15T16:35:40;7.20;;;3.63;;
75772;SDS011;64381;0.000;0.000;2023-02-15T16:41:10;7.30;;;3.42;;
75772;SDS011;64381;0.000;0.000;2023-02-15T16:43:37;6.28;;;3.30;;
75772;SDS011;64381;0.000;0.000;2023-02-15T16:46:06;6.07;;;3.25;;
75772;SDS011;64381;0.000;0.000;2023-02-15T16:48:38;5.88;;;3.20;;
75772;SDS011;64381;0.000;0.000;2023-02-15T16:51:05;5.83;;;3.10;;
75772;SDS011;64381;0.000;0.000;2023-02-15T16:53:31;5.97;;;3.10;;
75772;SDS011;64381;0.000;0.000;2023-02-15T16:55:59;5.70;;;3.33;;
75772;SDS011;64381;0.000;0.000;2023-02-15T16:58:45;5.93;;;3.20;;
75772;SDS011;64381;0.000;0.000;2023-02-15T17:01:15;6.40;;;3.30;;
75772;SDS011;64381;0.000;0.000;2023-02-15T17:03:41;6.80;;;3.38;;
75772;SDS011;64381;0.000;0.000;2023-02-15T17:06:21;5.90;;;2.95;;
75772;SDS011;64381;0.000;0.000;2023-02-15T17:08:51;6.03;;;3.15;;
75772;SDS011;64381;0.000;0.000;2023-02-15T17:11:20;6.37;;;3.20;;
75772;SDS011;64381;0.000;0.000;2023-02-15T17:16:27;5.68;;;3.05;;
75772;SDS011;64381;0.000;0.000;2023-02-15T17:18:55;5.80;;;3.17;;
75772;SDS011;64381;0.000;0.000;2023-02-15T17:21:20;6.00;;;2.97;;
75772;SDS011;64381;0.000;0.000;2023-02-15T17:23:51;5.90;;;2.97;;
75772;SDS011;64381;0.000;0.000;2023-02-15T17:26:23;5.60;;;3.03;;
75772;SDS011;64381;0.000;0.000;2023-02-15T17:28:55;5.90;;;3.22;;
75772;SDS011;64381;0.000;0.000;2023-02-15T17:31:24;6.22;;;3.15;;
75772;SDS011;64381;0.000;0.000;2023-02-15T17:33:51;6.28;;;3.25;;
75772;SDS011;64381;0.000;0.000;2023-02-15T17:36:18;5.20;;;2.70;;
75772;SDS011;64381;0.000;0.000;2023-02-15T17:41:22;5.43;;;3.13;;
75772;SDS011;64381;0.000;0.000;2023-02-15T17:43:57;5.93;;;3.10;;
75772;SDS011;64381;0.000;0.000;2023-02-15T17:46:23;5.70;;;3.27;;
75772;SDS011;64381;0.000;0.000;2023-02-15T17:48:50;5.28;;;2.92;;
75772;SDS011;64381;0.000;0.000;2023-02-15T17:51:17;5.63;;;2.85;;
75772;SDS011;64381;0.000;0.000;2023-02-15T17:53:44;5.68;;;3.03;;
75772;SDS011;64381;0.000;0.000;2023-02-15T17:56:09;6.40;;;3.07;;
75772;SDS011;64381;0.000;0.000;2023-02-15T17:58:35;5.97;;;3.20;;
75772;SDS011;64381;0.000;0.000;2023-02-15T18:01:01;5.18;;;3.05;;
75772;SDS011;64381;0.000;0.000;2023-02-15T18:03:38;5.57;;;3.03;;
75772;SDS011;64381;0.000;0.000;2023-02-15T18:06:05;5.15;;;2.72;;
75772;SDS011;64381;0.000;0.000;2023-02-15T18:08:30;5.67;;;2.90;;
75772;SDS011;64381;0.000;0.000;2023-02-15T18:10:56;5.20;;;3.00;;
75772;SDS011;64381;0.000;0.000;2023-02-15T18:13:21;5.90;;;3.03;;
75772;SDS011;64381;0.000;0.000;2023-02-15T18:15:46;5.33;;;2.60;;
75772;SDS011;64381;0.000;0.000;2023-02-15T18:18:11;5.70;;;2.80;;
75772;SDS011;64381;0.000;0.000;2023-02-15T18:20:37;6.20;;;3.20;;
75772;SDS011;64381;0.000;0.000;2023-02-15T18:23:02;4.97;;;2.53;;